sensor_id;sensor_type;location;lat;lon;timestamp;P1;durP1;ratioP1;P2;durP2;ratioP2
15833;SDS011;8017;50.812;4.934;2022-11-13T00:02:22;31.13;;;24.97;;
15833;SDS011;8017;50.812;4.934;2022-11-13T00:05:24;32.73;;;24.70;;
15833;SDS011;8017;50.812;4.934;2022-11-13T00:08:26;30.63;;;24.80;;
15833;SDS011;8017;50.812;4.934;2022-11-13T00:11:28;31.77;;;25.30;;
15833;SDS011;8017;50.812;4.934;2022-11-13T00:14:31;31.67;;;25.20;;
15833;SDS011;8017;50.812;4.934;2022-11-13T00:17:33;37.53;;;27.60;;
15833;SDS011;8017;50.812;4.934;2022-11-13T00:20:35;32.67;;;23.60;;
15833;SDS011;8017;50.812;4.934;2022-11-13T00:23:37;33.77;;;26.53;;
15833;SDS011;8017;50.812;4.934;2022-11-13T00:26:39;29.57;;;24.87;;
15833;SDS011;8017;50.812;4.934;2022-11-13T00:29:43;33.40;;;25.03;;
15833;SDS011;8017;50.812;4.934;2022-11-13T00:32:45;32.87;;;25.17;;
15833;SDS011;8017;50.812;4.934;2022-11-13T00:35:47;30.80;;;24.77;;
15833;SDS011;8017;50.812;4.934;2022-11-13T00:38:49;28.43;;;24.10;;
15833;SDS011;8017;50.812;4.934;2022-11-13T00:41:51;29.37;;;24.70;;
15833;SDS011;8017;50.812;4.934;2022-11-13T00:44:55;29.67;;;24.13;;
15833;SDS011;8017;50.812;4.934;2022-11-13T00:47:56;28.93;;;23.83;;
15833;SDS011;8017;50.812;4.934;2022-11-13T00:50:58;30.77;;;23.47;;
15833;SDS011;8017;50.812;4.934;2022-11-13T00:54:01;28.53;;;23.20;;
15833;SDS011;8017;50.812;4.934;2022-11-13T00:57:02;25.23;;;21.47;;
15833;SDS011;8017;50.812;4.934;2022-11-13T01:00:07;26.60;;;21.80;;
15833;SDS011;8017;50.812;4.934;2022-11-13T01:03:10;31.30;;;23.20;;
15833;SDS011;8017;50.812;4.934;2022-11-13T01:06:13;27.13;;;21.93;;
15833;SDS011;8017;50.812;4.934;2022-11-13T01:09:18;30.20;;;24.00;;
15833;SDS011;8017;50.812;4.934;2022-11-13T01:12:20;27.93;;;24.13;;
15833;SDS011;8017;50.812;4.934;2022-11-13T01:15:23;30.30;;;23.93;;
15833;SDS011;8017;50.812;4.934;2022-11-13T01:18:25;29.70;;;22.87;;
15833;SDS011;8017;50.812;4.934;2022-11-13T01:21:27;30.30;;;24.80;;
15833;SDS011;8017;50.812;4.934;2022-11-13T01:24:29;30.73;;;24.50;;
15833;SDS011;8017;50.812;4.934;2022-11-13T01:27:31;27.80;;;23.80;;
15833;SDS011;8017;50.812;4.934;2022-11-13T01:30:38;26.93;;;22.27;;
15833;SDS011;8017;50.812;4.934;2022-11-13T01:33:40;31.80;;;24.00;;
15833;SDS011;8017;50.812;4.934;2022-11-13T01:36:42;26.77;;;21.73;;
15833;SDS011;8017;50.812;4.934;2022-11-13T01:39:44;26.57;;;21.57;;
15833;SDS011;8017;50.812;4.934;2022-11-13T01:42:45;26.50;;;21.07;;
15833;SDS011;8017;50.812;4.934;2022-11-13T01:46:01;26.00;;;20.70;;
15833;SDS011;8017;50.812;4.934;2022-11-13T01:49:14;22.63;;;19.67;;
15833;SDS011;8017;50.812;4.934;2022-11-13T01:52:25;24.87;;;20.43;;
15833;SDS011;8017;50.812;4.934;2022-11-13T01:55:28;27.97;;;21.67;;
15833;SDS011;8017;50.812;4.934;2022-11-13T01:58:30;25.03;;;21.47;;
15833;SDS011;8017;50.812;4.934;2022-11-13T02:01:34;26.90;;;21.77;;
15833;SDS011;8017;50.812;4.934;2022-11-13T02:04:36;27.53;;;22.23;;
15833;SDS011;8017;50.812;4.934;2022-11-13T02:07:38;28.23;;;23.27;;
15833;SDS011;8017;50.812;4.934;2022-11-13T02:10:40;25.70;;;22.10;;
15833;SDS011;8017;50.812;4.934;2022-11-13T02:13:42;29.57;;;22.90;;
15833;SDS011;8017;50.812;4.934;2022-11-13T02:16:47;30.07;;;23.57;;
15833;SDS011;8017;50.812;4.934;2022-11-13T02:19:54;28.97;;;23.07;;
15833;SDS011;8017;50.812;4.934;2022-11-13T02:23:00;27.87;;;22.57;;
15833;SDS011;8017;50.812;4.934;2022-11-13T02:26:10;29.20;;;23.77;;
15833;SDS011;8017;50.812;4.934;2022-11-13T02:29:12;29.73;;;24.60;;
15833;SDS011;8017;50.812;4.934;2022-11-13T02:32:14;28.13;;;22.30;;
15833;SDS011;8017;50.812;4.934;2022-11-13T02:35:17;28.97;;;23.13;;
15833;SDS011;8017;50.812;4.934;2022-11-13T02:38:22;27.13;;;21.90;;
15833;SDS011;8017;50.812;4.934;2022-11-13T02:41:25;30.97;;;22.97;;
15833;SDS011;8017;50.812;4.934;2022-11-13T02:44:27;27.37;;;22.57;;
15833;SDS011;8017;50.812;4.934;2022-11-13T02:47:29;28.73;;;23.53;;
15833;SDS011;8017;50.812;4.934;2022-11-13T02:50:31;28.50;;;23.30;;
15833;SDS011;8017;50.812;4.934;2022-11-13T02:53:35;27.10;;;22.47;;
15833;SDS011;8017;50.812;4.934;2022-11-13T02:56:39;26.30;;;22.83;;
15833;SDS011;8017;50.812;4.934;2022-11-13T02:59:41;31.60;;;22.50;;
15833;SDS011;8017;50.812;4.934;2022-11-13T03:02:42;28.90;;;24.13;;
15833;SDS011;8017;50.812;4.934;2022-11-13T03:05:46;26.97;;;23.80;;
15833;SDS011;8017;50.812;4.934;2022-11-13T03:08:49;29.63;;;22.70;;
15833;SDS011;8017;50.812;4.934;2022-11-13T03:11:52;27.07;;;22.07;;
15833;SDS011;8017;50.812;4.934;2022-11-13T03:14:54;28.00;;;22.33;;
15833;SDS011;8017;50.812;4.934;2022-11-13T03:17:56;26.60;;;22.73;;
15833;SDS011;8017;50.812;4.934;2022-11-13T03:21:04;29.40;;;23.40;;
15833;SDS011;8017;50.812;4.934;2022-11-13T03:24:06;26.23;;;21.37;;
15833;SDS011;8017;50.812;4.934;2022-11-13T03:27:09;27.10;;;20.93;;
15833;SDS011;8017;50.812;4.934;2022-11-13T03:30:11;24.13;;;20.53;;
15833;SDS011;8017;50.812;4.934;2022-11-13T03:33:14;27.97;;;22.70;;
15833;SDS011;8017;50.812;4.934;2022-11-13T03:36:16;27.50;;;22.60;;
15833;SDS011;8017;50.812;4.934;2022-11-13T03:39:18;28.93;;;22.83;;
15833;SDS011;8017;50.812;4.934;2022-11-13T03:42:21;26.10;;;20.90;;
15833;SDS011;8017;50.812;4.934;2022-11-13T03:45:23;27.57;;;21.80;;
15833;SDS011;8017;50.812;4.934;2022-11-13T03:48:25;24.27;;;19.33;;
15833;SDS011;8017;50.812;4.934;2022-11-13T03:51:27;24.93;;;20.93;;
15833;SDS011;8017;50.812;4.934;2022-11-13T03:54:29;24.00;;;19.37;;
15833;SDS011;8017;50.812;4.934;2022-11-13T03:57:32;24.47;;;19.90;;
15833;SDS011;8017;50.812;4.934;2022-11-13T04:00:34;22.97;;;19.63;;
15833;SDS011;8017;50.812;4.934;2022-11-13T04:03:36;28.20;;;21.60;;
15833;SDS011;8017;50.812;4.934;2022-11-13T04:06:38;33.67;;;23.17;;
15833;SDS011;8017;50.812;4.934;2022-11-13T04:09:40;30.17;;;22.83;;
15833;SDS011;8017;50.812;4.934;2022-11-13T04:12:43;31.90;;;23.57;;
15833;SDS011;8017;50.812;4.934;2022-11-13T04:15:45;33.33;;;25.53;;
15833;SDS011;8017;50.812;4.934;2022-11-13T04:18:47;29.70;;;24.63;;
15833;SDS011;8017;50.812;4.934;2022-11-13T04:21:49;30.93;;;25.63;;
15833;SDS011;8017;50.812;4.934;2022-11-13T04:24:51;31.57;;;25.50;;
15833;SDS011;8017;50.812;4.934;2022-11-13T04:27:54;29.53;;;22.37;;
15833;SDS011;8017;50.812;4.934;2022-11-13T04:30:56;26.43;;;21.57;;
15833;SDS011;8017;50.812;4.934;2022-11-13T04:33:58;24.13;;;18.83;;
15833;SDS011;8017;50.812;4.934;2022-11-13T04:37:01;20.60;;;17.67;;
15833;SDS011;8017;50.812;4.934;2022-11-13T04:40:03;21.67;;;16.83;;
15833;SDS011;8017;50.812;4.934;2022-11-13T04:43:07;18.43;;;16.37;;
15833;SDS011;8017;50.812;4.934;2022-11-13T04:46:08;22.33;;;17.33;;
15833;SDS011;8017;50.812;4.934;2022-11-13T04:49:10;18.27;;;16.13;;
15833;SDS011;8017;50.812;4.934;2022-11-13T04:52:12;19.63;;;16.70;;
15833;SDS011;8017;50.812;4.934;2022-11-13T04:55:14;22.43;;;16.60;;
15833;SDS011;8017;50.812;4.934;2022-11-13T04:58:17;18.53;;;16.00;;
15833;SDS011;8017;50.812;4.934;2022-11-13T05:01:19;19.80;;;16.87;;
15833;SDS011;8017;50.812;4.934;2022-11-13T05:04:21;18.17;;;16.20;;
15833;SDS011;8017;50.812;4.934;2022-11-13T05:07:23;20.17;;;17.40;;
15833;SDS011;8017;50.812;4.934;2022-11-13T05:10:26;19.00;;;16.00;;
15833;SDS011;8017;50.812;4.934;2022-11-13T05:13:30;21.57;;;17.27;;
15833;SDS011;8017;50.812;4.934;2022-11-13T05:16:33;20.60;;;16.53;;
15833;SDS011;8017;50.812;4.934;2022-11-13T05:19:35;19.37;;;17.30;;
15833;SDS011;8017;50.812;4.934;2022-11-13T05:22:37;22.43;;;16.07;;
15833;SDS011;8017;50.812;4.934;2022-11-13T05:25:39;21.00;;;16.03;;
15833;SDS011;8017;50.812;4.934;2022-11-13T05:28:42;19.37;;;16.50;;
15833;SDS011;8017;50.812;4.934;2022-11-13T05:31:44;19.00;;;16.40;;
15833;SDS011;8017;50.812;4.934;2022-11-13T05:34:46;18.30;;;15.43;;
15833;SDS011;8017;50.812;4.934;2022-11-13T05:37:48;19.20;;;16.17;;
15833;SDS011;8017;50.812;4.934;2022-11-13T05:40:50;19.40;;;16.03;;
15833;SDS011;8017;50.812;4.934;2022-11-13T05:43:53;17.73;;;15.17;;
15833;SDS011;8017;50.812;4.934;2022-11-13T05:46:55;22.93;;;16.17;;
15833;SDS011;8017;50.812;4.934;2022-11-13T05:49:57;16.93;;;15.13;;
15833;SDS011;8017;50.812;4.934;2022-11-13T05:52:59;18.93;;;16.70;;
15833;SDS011;8017;50.812;4.934;2022-11-13T05:56:01;23.83;;;16.13;;
15833;SDS011;8017;50.812;4.934;2022-11-13T05:59:06;20.73;;;17.20;;
15833;SDS011;8017;50.812;4.934;2022-11-13T06:02:08;19.90;;;15.90;;
15833;SDS011;8017;50.812;4.934;2022-11-13T06:05:10;22.73;;;17.10;;
15833;SDS011;8017;50.812;4.934;2022-11-13T06:08:11;18.37;;;16.40;;
15833;SDS011;8017;50.812;4.934;2022-11-13T06:11:14;19.77;;;16.53;;
15833;SDS011;8017;50.812;4.934;2022-11-13T06:14:18;19.30;;;16.37;;
15833;SDS011;8017;50.812;4.934;2022-11-13T06:17:20;18.83;;;16.00;;
15833;SDS011;8017;50.812;4.934;2022-11-13T06:20:22;18.40;;;16.40;;
15833;SDS011;8017;50.812;4.934;2022-11-13T06:23:24;18.60;;;16.60;;
15833;SDS011;8017;50.812;4.934;2022-11-13T06:26:27;20.00;;;16.83;;
15833;SDS011;8017;50.812;4.934;2022-11-13T06:29:31;21.30;;;16.93;;
15833;SDS011;8017;50.812;4.934;2022-11-13T06:32:33;22.37;;;17.27;;
15833;SDS011;8017;50.812;4.934;2022-11-13T06:35:35;19.00;;;15.63;;
15833;SDS011;8017;50.812;4.934;2022-11-13T06:38:37;20.93;;;16.73;;
15833;SDS011;8017;50.812;4.934;2022-11-13T06:41:40;20.17;;;15.87;;
15833;SDS011;8017;50.812;4.934;2022-11-13T06:44:43;22.17;;;17.13;;
15833;SDS011;8017;50.812;4.934;2022-11-13T06:47:45;21.63;;;16.33;;
15833;SDS011;8017;50.812;4.934;2022-11-13T06:50:47;20.47;;;16.80;;
15833;SDS011;8017;50.812;4.934;2022-11-13T06:53:50;20.00;;;16.53;;
15833;SDS011;8017;50.812;4.934;2022-11-13T06:56:52;20.93;;;17.13;;
15833;SDS011;8017;50.812;4.934;2022-11-13T06:59:55;22.23;;;16.83;;
15833;SDS011;8017;50.812;4.934;2022-11-13T07:02:57;22.50;;;16.80;;
15833;SDS011;8017;50.812;4.934;2022-11-13T07:06:00;22.60;;;17.83;;
15833;SDS011;8017;50.812;4.934;2022-11-13T07:09:03;22.07;;;17.50;;
15833;SDS011;8017;50.812;4.934;2022-11-13T07:12:05;24.17;;;18.37;;
15833;SDS011;8017;50.812;4.934;2022-11-13T07:15:09;22.40;;;17.20;;
15833;SDS011;8017;50.812;4.934;2022-11-13T07:18:11;23.20;;;18.43;;
15833;SDS011;8017;50.812;4.934;2022-11-13T07:21:13;20.70;;;18.33;;
15833;SDS011;8017;50.812;4.934;2022-11-13T07:24:15;27.40;;;19.57;;
15833;SDS011;8017;50.812;4.934;2022-11-13T07:27:17;26.97;;;19.57;;
15833;SDS011;8017;50.812;4.934;2022-11-13T07:30:20;25.90;;;19.20;;
15833;SDS011;8017;50.812;4.934;2022-11-13T07:33:22;23.93;;;18.73;;
15833;SDS011;8017;50.812;4.934;2022-11-13T07:36:24;27.27;;;20.53;;
15833;SDS011;8017;50.812;4.934;2022-11-13T07:39:26;28.10;;;22.77;;
15833;SDS011;8017;50.812;4.934;2022-11-13T07:42:27;28.50;;;21.53;;
15833;SDS011;8017;50.812;4.934;2022-11-13T07:45:31;30.20;;;20.87;;
15833;SDS011;8017;50.812;4.934;2022-11-13T07:48:33;24.70;;;20.10;;
15833;SDS011;8017;50.812;4.934;2022-11-13T07:51:34;25.10;;;19.77;;
15833;SDS011;8017;50.812;4.934;2022-11-13T07:54:36;22.37;;;19.83;;
15833;SDS011;8017;50.812;4.934;2022-11-13T07:57:38;22.63;;;18.93;;
15833;SDS011;8017;50.812;4.934;2022-11-13T08:00:42;23.40;;;19.60;;
15833;SDS011;8017;50.812;4.934;2022-11-13T08:03:44;23.23;;;19.60;;
15833;SDS011;8017;50.812;4.934;2022-11-13T08:06:46;26.23;;;19.00;;
15833;SDS011;8017;50.812;4.934;2022-11-13T08:09:47;26.10;;;18.83;;
15833;SDS011;8017;50.812;4.934;2022-11-13T08:12:55;23.47;;;18.43;;
15833;SDS011;8017;50.812;4.934;2022-11-13T08:16:00;28.47;;;21.77;;
15833;SDS011;8017;50.812;4.934;2022-11-13T08:19:03;24.27;;;21.07;;
15833;SDS011;8017;50.812;4.934;2022-11-13T08:22:05;26.80;;;21.77;;
15833;SDS011;8017;50.812;4.934;2022-11-13T08:25:07;24.23;;;19.37;;
15833;SDS011;8017;50.812;4.934;2022-11-13T08:28:09;25.57;;;20.00;;
15833;SDS011;8017;50.812;4.934;2022-11-13T08:31:14;24.17;;;18.03;;
15833;SDS011;8017;50.812;4.934;2022-11-13T08:34:17;22.13;;;17.80;;
15833;SDS011;8017;50.812;4.934;2022-11-13T08:37:19;18.43;;;14.70;;
15833;SDS011;8017;50.812;4.934;2022-11-13T08:40:21;16.57;;;13.90;;
15833;SDS011;8017;50.812;4.934;2022-11-13T08:43:23;14.17;;;12.67;;
15833;SDS011;8017;50.812;4.934;2022-11-13T08:46:26;15.97;;;13.33;;
15833;SDS011;8017;50.812;4.934;2022-11-13T08:49:28;14.60;;;12.60;;
15833;SDS011;8017;50.812;4.934;2022-11-13T08:52:30;15.50;;;13.20;;
15833;SDS011;8017;50.812;4.934;2022-11-13T08:55:32;16.97;;;13.77;;
15833;SDS011;8017;50.812;4.934;2022-11-13T08:58:35;16.67;;;13.67;;
15833;SDS011;8017;50.812;4.934;2022-11-13T09:01:40;14.93;;;13.17;;
15833;SDS011;8017;50.812;4.934;2022-11-13T09:05:00;13.47;;;12.07;;
15833;SDS011;8017;50.812;4.934;2022-11-13T09:08:03;14.77;;;12.90;;
15833;SDS011;8017;50.812;4.934;2022-11-13T09:11:10;15.40;;;12.03;;
15833;SDS011;8017;50.812;4.934;2022-11-13T09:14:13;16.93;;;12.93;;
15833;SDS011;8017;50.812;4.934;2022-11-13T09:17:18;14.73;;;13.13;;
15833;SDS011;8017;50.812;4.934;2022-11-13T09:20:22;12.17;;;10.80;;
15833;SDS011;8017;50.812;4.934;2022-11-13T09:23:25;12.43;;;10.50;;
15833;SDS011;8017;50.812;4.934;2022-11-13T09:26:27;12.83;;;10.73;;
15833;SDS011;8017;50.812;4.934;2022-11-13T09:29:29;14.00;;;11.60;;
15833;SDS011;8017;50.812;4.934;2022-11-13T09:32:32;13.87;;;12.17;;
15833;SDS011;8017;50.812;4.934;2022-11-13T09:35:34;12.27;;;10.67;;
15833;SDS011;8017;50.812;4.934;2022-11-13T09:38:36;12.17;;;10.77;;
15833;SDS011;8017;50.812;4.934;2022-11-13T09:41:39;12.37;;;11.07;;
15833;SDS011;8017;50.812;4.934;2022-11-13T09:44:46;11.77;;;10.20;;
15833;SDS011;8017;50.812;4.934;2022-11-13T09:47:52;11.07;;;9.97;;
15833;SDS011;8017;50.812;4.934;2022-11-13T09:50:57;12.60;;;10.07;;
15833;SDS011;8017;50.812;4.934;2022-11-13T09:54:02;11.10;;;9.47;;
15833;SDS011;8017;50.812;4.934;2022-11-13T09:57:10;11.33;;;9.23;;
15833;SDS011;8017;50.812;4.934;2022-11-13T10:00:21;10.93;;;9.67;;
15833;SDS011;8017;50.812;4.934;2022-11-13T10:03:28;11.13;;;10.03;;
15833;SDS011;8017;50.812;4.934;2022-11-13T10:06:42;10.70;;;9.10;;
15833;SDS011;8017;50.812;4.934;2022-11-13T10:09:57;10.90;;;9.30;;
15833;SDS011;8017;50.812;4.934;2022-11-13T10:13:06;9.83;;;8.50;;
15833;SDS011;8017;50.812;4.934;2022-11-13T10:16:15;10.50;;;9.40;;
15833;SDS011;8017;50.812;4.934;2022-11-13T10:19:27;11.77;;;8.60;;
15833;SDS011;8017;50.812;4.934;2022-11-13T10:22:36;10.17;;;8.57;;
15833;SDS011;8017;50.812;4.934;2022-11-13T10:25:41;11.07;;;9.80;;
15833;SDS011;8017;50.812;4.934;2022-11-13T10:28:44;9.77;;;8.77;;
15833;SDS011;8017;50.812;4.934;2022-11-13T10:31:48;13.73;;;10.73;;
15833;SDS011;8017;50.812;4.934;2022-11-13T10:34:56;11.57;;;10.00;;
15833;SDS011;8017;50.812;4.934;2022-11-13T10:38:02;10.10;;;8.70;;
15833;SDS011;8017;50.812;4.934;2022-11-13T10:41:06;15.27;;;10.23;;
15833;SDS011;8017;50.812;4.934;2022-11-13T10:44:25;10.27;;;9.00;;
15833;SDS011;8017;50.812;4.934;2022-11-13T10:47:30;9.67;;;8.57;;
15833;SDS011;8017;50.812;4.934;2022-11-13T10:50:34;11.40;;;9.90;;
15833;SDS011;8017;50.812;4.934;2022-11-13T10:53:37;11.33;;;10.00;;
15833;SDS011;8017;50.812;4.934;2022-11-13T10:56:41;10.67;;;9.50;;
15833;SDS011;8017;50.812;4.934;2022-11-13T10:59:43;10.97;;;9.70;;
15833;SDS011;8017;50.812;4.934;2022-11-13T11:02:47;12.23;;;9.90;;
15833;SDS011;8017;50.812;4.934;2022-11-13T11:05:52;9.67;;;8.43;;
15833;SDS011;8017;50.812;4.934;2022-11-13T11:09:04;12.80;;;10.07;;
15833;SDS011;8017;50.812;4.934;2022-11-13T11:12:08;10.10;;;9.13;;
15833;SDS011;8017;50.812;4.934;2022-11-13T11:15:17;10.13;;;8.93;;
15833;SDS011;8017;50.812;4.934;2022-11-13T11:18:25;9.80;;;8.60;;
15833;SDS011;8017;50.812;4.934;2022-11-13T11:21:33;9.40;;;8.47;;
15833;SDS011;8017;50.812;4.934;2022-11-13T11:24:37;8.63;;;7.83;;
15833;SDS011;8017;50.812;4.934;2022-11-13T11:27:43;9.07;;;7.93;;
15833;SDS011;8017;50.812;4.934;2022-11-13T11:30:52;9.60;;;8.60;;
15833;SDS011;8017;50.812;4.934;2022-11-13T11:33:59;9.47;;;7.93;;
15833;SDS011;8017;50.812;4.934;2022-11-13T11:37:12;12.10;;;9.77;;
15833;SDS011;8017;50.812;4.934;2022-11-13T11:40:18;10.80;;;9.70;;
15833;SDS011;8017;50.812;4.934;2022-11-13T11:43:28;11.37;;;10.17;;
15833;SDS011;8017;50.812;4.934;2022-11-13T11:46:37;9.67;;;8.13;;
15833;SDS011;8017;50.812;4.934;2022-11-13T11:49:39;9.23;;;8.33;;
15833;SDS011;8017;50.812;4.934;2022-11-13T11:52:50;7.97;;;7.07;;
15833;SDS011;8017;50.812;4.934;2022-11-13T11:56:02;11.33;;;9.93;;
15833;SDS011;8017;50.812;4.934;2022-11-13T11:59:27;9.93;;;8.77;;
15833;SDS011;8017;50.812;4.934;2022-11-13T12:02:47;8.90;;;8.10;;
15833;SDS011;8017;50.812;4.934;2022-11-13T12:06:12;10.57;;;8.63;;
15833;SDS011;8017;50.812;4.934;2022-11-13T12:09:26;9.50;;;8.57;;
15833;SDS011;8017;50.812;4.934;2022-11-13T12:12:35;8.83;;;7.93;;
15833;SDS011;8017;50.812;4.934;2022-11-13T12:15:48;8.30;;;7.13;;
15833;SDS011;8017;50.812;4.934;2022-11-13T12:18:59;7.30;;;6.60;;
15833;SDS011;8017;50.812;4.934;2022-11-13T12:22:05;8.73;;;7.83;;
15833;SDS011;8017;50.812;4.934;2022-11-13T12:25:17;12.73;;;9.00;;
15833;SDS011;8017;50.812;4.934;2022-11-13T12:28:29;8.60;;;6.87;;
15833;SDS011;8017;50.812;4.934;2022-11-13T12:31:39;7.57;;;6.77;;
15833;SDS011;8017;50.812;4.934;2022-11-13T12:34:49;6.87;;;6.13;;
15833;SDS011;8017;50.812;4.934;2022-11-13T12:37:54;7.67;;;6.83;;
15833;SDS011;8017;50.812;4.934;2022-11-13T12:41:08;6.13;;;5.53;;
15833;SDS011;8017;50.812;4.934;2022-11-13T12:44:19;7.50;;;6.17;;
15833;SDS011;8017;50.812;4.934;2022-11-13T12:47:26;13.67;;;7.50;;
15833;SDS011;8017;50.812;4.934;2022-11-13T12:50:29;9.50;;;7.83;;
15833;SDS011;8017;50.812;4.934;2022-11-13T12:53:41;10.87;;;9.13;;
15833;SDS011;8017;50.812;4.934;2022-11-13T12:56:46;9.30;;;8.40;;
15833;SDS011;8017;50.812;4.934;2022-11-13T12:59:49;10.37;;;9.37;;
15833;SDS011;8017;50.812;4.934;2022-11-13T13:03:06;12.23;;;10.80;;
15833;SDS011;8017;50.812;4.934;2022-11-13T13:06:22;14.67;;;11.47;;
15833;SDS011;8017;50.812;4.934;2022-11-13T13:09:40;10.50;;;9.40;;
15833;SDS011;8017;50.812;4.934;2022-11-13T13:12:53;10.70;;;9.60;;
15833;SDS011;8017;50.812;4.934;2022-11-13T13:16:00;13.87;;;10.20;;
15833;SDS011;8017;50.812;4.934;2022-11-13T13:19:06;10.30;;;9.30;;
15833;SDS011;8017;50.812;4.934;2022-11-13T13:22:24;10.67;;;9.40;;
15833;SDS011;8017;50.812;4.934;2022-11-13T13:25:28;10.57;;;9.53;;
15833;SDS011;8017;50.812;4.934;2022-11-13T13:28:32;10.13;;;8.40;;
15833;SDS011;8017;50.812;4.934;2022-11-13T13:31:40;8.97;;;8.07;;
15833;SDS011;8017;50.812;4.934;2022-11-13T13:34:52;8.67;;;7.87;;
15833;SDS011;8017;50.812;4.934;2022-11-13T13:38:00;10.03;;;8.27;;
15833;SDS011;8017;50.812;4.934;2022-11-13T13:41:11;9.60;;;8.53;;
15833;SDS011;8017;50.812;4.934;2022-11-13T13:47:50;11.83;;;9.20;;
15833;SDS011;8017;50.812;4.934;2022-11-13T13:50:53;9.47;;;8.47;;
15833;SDS011;8017;50.812;4.934;2022-11-13T13:53:57;12.30;;;10.17;;
15833;SDS011;8017;50.812;4.934;2022-11-13T13:57:01;10.33;;;8.57;;
15833;SDS011;8017;50.812;4.934;2022-11-13T14:00:10;10.43;;;9.23;;
15833;SDS011;8017;50.812;4.934;2022-11-13T14:03:15;12.23;;;8.30;;
15833;SDS011;8017;50.812;4.934;2022-11-13T14:06:21;11.43;;;8.93;;
15833;SDS011;8017;50.812;4.934;2022-11-13T14:09:25;10.67;;;9.57;;
15833;SDS011;8017;50.812;4.934;2022-11-13T14:12:28;10.20;;;9.20;;
15833;SDS011;8017;50.812;4.934;2022-11-13T14:15:32;10.30;;;8.97;;
15833;SDS011;8017;50.812;4.934;2022-11-13T14:18:34;12.07;;;10.23;;
15833;SDS011;8017;50.812;4.934;2022-11-13T14:21:36;12.07;;;9.73;;
15833;SDS011;8017;50.812;4.934;2022-11-13T14:24:41;13.07;;;11.63;;
15833;SDS011;8017;50.812;4.934;2022-11-13T14:27:48;12.53;;;10.97;;
15833;SDS011;8017;50.812;4.934;2022-11-13T14:30:55;12.33;;;10.33;;
15833;SDS011;8017;50.812;4.934;2022-11-13T14:34:00;10.50;;;9.40;;
15833;SDS011;8017;50.812;4.934;2022-11-13T14:37:05;12.40;;;10.03;;
15833;SDS011;8017;50.812;4.934;2022-11-13T14:40:19;11.87;;;9.73;;
15833;SDS011;8017;50.812;4.934;2022-11-13T14:43:24;10.87;;;9.73;;
15833;SDS011;8017;50.812;4.934;2022-11-13T14:46:30;11.93;;;9.23;;
15833;SDS011;8017;50.812;4.934;2022-11-13T14:49:35;12.80;;;11.00;;
15833;SDS011;8017;50.812;4.934;2022-11-13T14:52:38;11.83;;;10.00;;
15833;SDS011;8017;50.812;4.934;2022-11-13T14:55:48;14.30;;;10.60;;
15833;SDS011;8017;50.812;4.934;2022-11-13T14:58:51;10.87;;;9.63;;
15833;SDS011;8017;50.812;4.934;2022-11-13T15:01:55;10.60;;;9.50;;
15833;SDS011;8017;50.812;4.934;2022-11-13T15:04:58;10.57;;;8.93;;
15833;SDS011;8017;50.812;4.934;2022-11-13T15:07:59;12.80;;;9.77;;
15833;SDS011;8017;50.812;4.934;2022-11-13T15:11:05;14.37;;;10.47;;
15833;SDS011;8017;50.812;4.934;2022-11-13T15:14:09;14.37;;;11.87;;
15833;SDS011;8017;50.812;4.934;2022-11-13T15:17:14;15.80;;;12.30;;
15833;SDS011;8017;50.812;4.934;2022-11-13T15:20:20;18.17;;;13.57;;
15833;SDS011;8017;50.812;4.934;2022-11-13T15:23:24;16.13;;;12.30;;
15833;SDS011;8017;50.812;4.934;2022-11-13T15:26:28;15.57;;;10.98;;
15833;SDS011;8017;50.812;4.934;2022-11-13T15:29:30;13.83;;;11.60;;
15833;SDS011;8017;50.812;4.934;2022-11-13T15:32:34;21.60;;;14.33;;
15833;SDS011;8017;50.812;4.934;2022-11-13T15:35:36;23.60;;;18.60;;
15833;SDS011;8017;50.812;4.934;2022-11-13T15:38:38;20.37;;;16.10;;
15833;SDS011;8017;50.812;4.934;2022-11-13T15:41:40;19.77;;;14.70;;
15833;SDS011;8017;50.812;4.934;2022-11-13T15:44:42;19.20;;;13.60;;
15833;SDS011;8017;50.812;4.934;2022-11-13T15:47:46;17.07;;;12.63;;
15833;SDS011;8017;50.812;4.934;2022-11-13T15:50:48;15.80;;;11.90;;
15833;SDS011;8017;50.812;4.934;2022-11-13T15:53:51;17.17;;;12.30;;
15833;SDS011;8017;50.812;4.934;2022-11-13T15:56:56;16.77;;;13.77;;
15833;SDS011;8017;50.812;4.934;2022-11-13T15:59:58;18.83;;;14.67;;
15833;SDS011;8017;50.812;4.934;2022-11-13T16:03:07;18.60;;;14.87;;
15833;SDS011;8017;50.812;4.934;2022-11-13T16:06:11;19.13;;;15.00;;
15833;SDS011;8017;50.812;4.934;2022-11-13T16:09:16;18.57;;;14.23;;
15833;SDS011;8017;50.812;4.934;2022-11-13T16:12:18;17.53;;;14.40;;
15833;SDS011;8017;50.812;4.934;2022-11-13T16:15:20;18.37;;;15.20;;
15833;SDS011;8017;50.812;4.934;2022-11-13T16:18:24;20.63;;;15.60;;
15833;SDS011;8017;50.812;4.934;2022-11-13T16:21:29;20.43;;;16.83;;
15833;SDS011;8017;50.812;4.934;2022-11-13T16:24:31;18.70;;;16.13;;
15833;SDS011;8017;50.812;4.934;2022-11-13T16:27:33;19.17;;;15.97;;
15833;SDS011;8017;50.812;4.934;2022-11-13T16:30:35;20.20;;;16.70;;
15833;SDS011;8017;50.812;4.934;2022-11-13T16:33:38;22.10;;;18.17;;
15833;SDS011;8017;50.812;4.934;2022-11-13T16:36:41;25.97;;;18.97;;
15833;SDS011;8017;50.812;4.934;2022-11-13T16:39:43;22.97;;;17.10;;
15833;SDS011;8017;50.812;4.934;2022-11-13T16:42:45;20.70;;;17.13;;
15833;SDS011;8017;50.812;4.934;2022-11-13T16:45:48;20.73;;;16.80;;
15833;SDS011;8017;50.812;4.934;2022-11-13T16:48:51;23.10;;;17.57;;
15833;SDS011;8017;50.812;4.934;2022-11-13T16:51:53;21.13;;;17.63;;
15833;SDS011;8017;50.812;4.934;2022-11-13T16:54:55;21.67;;;18.30;;
15833;SDS011;8017;50.812;4.934;2022-11-13T16:57:57;22.03;;;17.83;;
15833;SDS011;8017;50.812;4.934;2022-11-13T17:00:59;21.00;;;18.00;;
15833;SDS011;8017;50.812;4.934;2022-11-13T17:04:02;25.33;;;19.07;;
15833;SDS011;8017;50.812;4.934;2022-11-13T17:07:04;22.07;;;19.10;;
15833;SDS011;8017;50.812;4.934;2022-11-13T17:10:06;25.07;;;19.17;;
15833;SDS011;8017;50.812;4.934;2022-11-13T17:13:18;23.70;;;18.00;;
15833;SDS011;8017;50.812;4.934;2022-11-13T17:16:20;25.37;;;20.37;;
15833;SDS011;8017;50.812;4.934;2022-11-13T17:19:24;30.90;;;23.73;;
15833;SDS011;8017;50.812;4.934;2022-11-13T17:22:26;29.53;;;21.60;;
15833;SDS011;8017;50.812;4.934;2022-11-13T17:25:28;24.47;;;18.67;;
15833;SDS011;8017;50.812;4.934;2022-11-13T17:28:30;28.70;;;19.13;;
15833;SDS011;8017;50.812;4.934;2022-11-13T17:31:32;22.83;;;16.80;;
15833;SDS011;8017;50.812;4.934;2022-11-13T17:34:35;21.10;;;18.10;;
15833;SDS011;8017;50.812;4.934;2022-11-13T17:37:37;20.90;;;17.07;;
15833;SDS011;8017;50.812;4.934;2022-11-13T17:40:39;21.33;;;17.50;;
15833;SDS011;8017;50.812;4.934;2022-11-13T17:43:41;22.80;;;18.17;;
15833;SDS011;8017;50.812;4.934;2022-11-13T17:46:43;24.17;;;18.30;;
15833;SDS011;8017;50.812;4.934;2022-11-13T17:49:48;19.50;;;17.50;;
15833;SDS011;8017;50.812;4.934;2022-11-13T17:52:50;25.17;;;19.27;;
15833;SDS011;8017;50.812;4.934;2022-11-13T17:55:52;19.70;;;17.40;;
15833;SDS011;8017;50.812;4.934;2022-11-13T17:58:54;18.23;;;16.20;;
15833;SDS011;8017;50.812;4.934;2022-11-13T18:01:56;18.77;;;16.17;;
15833;SDS011;8017;50.812;4.934;2022-11-13T18:04:59;20.03;;;16.43;;
15833;SDS011;8017;50.812;4.934;2022-11-13T18:08:03;20.70;;;16.43;;
15833;SDS011;8017;50.812;4.934;2022-11-13T18:11:05;20.53;;;16.67;;
15833;SDS011;8017;50.812;4.934;2022-11-13T18:14:08;20.67;;;17.33;;
15833;SDS011;8017;50.812;4.934;2022-11-13T18:17:10;20.17;;;16.70;;
15833;SDS011;8017;50.812;4.934;2022-11-13T18:20:13;21.00;;;16.10;;
15833;SDS011;8017;50.812;4.934;2022-11-13T18:23:16;20.23;;;17.50;;